Time;durP1;ratioP1;P1;durP2;ratioP2;P2;SDS_P1;SDS_P2;PMS_P1;PMS_P2;Temp;Humidity;BMP_temperature;BMP_pressure;BME280_temperature;BME280_humidity;BME280_pressure;Samples;Min_cycle;Max_cycle;Signal;HPM_P1;HPM_P2
2022/05/16 00:00:35;;;;;;;4.97;1.50;;;;;;;;;;5052276;28;20204;-38
2022/05/16 00:03:03;;;;;;;1.83;1.50;;;;;;;;;;5039501;28;20221;-40
2022/05/16 00:05:31;;;;;;;1.80;1.60;;;;;;;;;;5050022;28;20234;-39
2022/05/16 00:07:58;;;;;;;4.17;1.67;;;;;;;;;;5052148;28;20206;-35
2022/05/16 00:10:26;;;;;;;3.00;1.60;;;;;;;;;;5047904;28;20234;-36
2022/05/16 00:12:53;;;;;;;2.67;1.80;;;;;;;;;;5050148;28;20206;-38
2022/05/16 00:15:21;;;;;;;4.47;2.33;;;;;;;;;;5050805;28;20215;-37
2022/05/16 00:17:48;;;;;;;4.90;1.83;;;;;;;;;;5039219;28;20207;-33
2022/05/16 00:20:16;;;;;;;2.03;1.90;;;;;;;;;;5050959;28;20225;-36
2022/05/16 00:22:43;;;;;;;2.13;1.50;;;;;;;;;;5051570;28;20221;-35
2022/05/16 00:25:11;;;;;;;2.27;1.80;;;;;;;;;;5047858;28;20203;-37
2022/05/16 00:27:40;;;;;;;1.80;1.70;;;;;;;;;;5050660;28;20195;-34
2022/05/16 00:30:09;;;;;;;1.20;1.10;;;;;;;;;;5052580;28;20219;-40
2022/05/16 00:32:36;;;;;;;3.53;1.60;;;;;;;;;;5043768;28;20205;-31
2022/05/16 00:35:03;;;;;;;5.37;1.80;;;;;;;;;;5050836;28;20206;-39
2022/05/16 00:37:30;;;;;;;1.60;1.50;;;;;;;;;;5051545;28;20206;-37
2022/05/16 00:39:57;;;;;;;4.97;1.80;;;;;;;;;;5041142;28;20564;-37
2022/05/16 00:42:24;;;;;;;1.60;1.50;;;;;;;;;;5043088;28;20214;-30
2022/05/16 00:44:54;;;;;;;2.13;1.70;;;;;;;;;;5050508;28;20210;-37
2022/05/16 00:47:21;;;;;;;1.50;1.40;;;;;;;;;;5044120;28;20227;-34
2022/05/16 00:49:49;;;;;;;1.80;1.70;;;;;;;;;;5048314;28;20214;-39
2022/05/16 00:52:17;;;;;;;3.27;1.93;;;;;;;;;;5049807;28;20212;-36
2022/05/16 00:54:46;;;;;;;2.57;1.60;;;;;;;;;;5050831;28;20214;-37
2022/05/16 00:57:16;;;;;;;4.90;1.97;;;;;;;;;;5036959;28;20223;-36
2022/05/16 00:59:47;;;;;;;1.70;1.60;;;;;;;;;;5048252;28;20241;-37
2022/05/16 01:05:01;;;;;;;2.63;1.50;;;;;;;;;;5041731;28;20349;-35
2022/05/16 01:07:29;;;;;;;2.67;1.87;;;;;;;;;;5049675;28;20226;-36
2022/05/16 01:09:57;;;;;;;3.67;2.10;;;;;;;;;;5044391;28;20210;-37
2022/05/16 01:12:26;;;;;;;6.47;2.40;;;;;;;;;;5045997;28;20211;-38
2022/05/16 01:14:55;;;;;;;2.13;1.70;;;;;;;;;;5050013;28;20204;-35
2022/05/16 01:17:23;;;;;;;2.20;1.87;;;;;;;;;;5041664;28;20219;-32
2022/05/16 01:19:50;;;;;;;1.70;1.60;;;;;;;;;;5048047;28;20213;-37
2022/05/16 01:22:30;;;;;;;1.53;1.43;;;;;;;;;;5050528;28;20207;-32
2022/05/16 01:24:58;;;;;;;1.63;1.53;;;;;;;;;;5044727;28;20209;-35
2022/05/16 01:27:25;;;;;;;2.63;1.60;;;;;;;;;;5036287;28;20225;-39
2022/05/16 01:29:52;;;;;;;5.20;1.93;;;;;;;;;;5048851;28;20206;-38
2022/05/16 01:32:20;;;;;;;2.60;1.80;;;;;;;;;;5042206;28;20257;-34
2022/05/16 01:34:47;;;;;;;2.37;1.50;;;;;;;;;;5046963;28;20194;-36
2022/05/16 01:37:14;;;;;;;2.67;1.73;;;;;;;;;;5050060;28;20226;-36
2022/05/16 01:39:42;;;;;;;3.53;1.87;;;;;;;;;;5050355;28;20269;-38
2022/05/16 01:42:14;;;;;;;1.40;1.40;;;;;;;;;;5042067;28;20191;-37
2022/05/16 01:44:41;;;;;;;1.97;1.30;;;;;;;;;;5047063;28;20210;-31
2022/05/16 01:47:08;;;;;;;2.00;1.73;;;;;;;;;;5043450;28;20234;-34
2022/05/16 01:49:35;;;;;;;2.50;1.80;;;;;;;;;;5048548;28;20209;-34
2022/05/16 01:52:02;;;;;;;3.47;1.70;;;;;;;;;;5049699;28;20222;-34
2022/05/16 01:54:29;;;;;;;2.43;1.20;;;;;;;;;;5049605;28;20695;-35
2022/05/16 01:56:58;;;;;;;3.03;1.90;;;;;;;;;;5042034;28;20222;-32
2022/05/16 01:59:25;;;;;;;2.73;1.70;;;;;;;;;;5049087;28;20214;-35
2022/05/16 02:01:52;;;;;;;2.17;1.63;;;;;;;;;;5043668;28;20213;-39
2022/05/16 02:04:19;;;;;;;3.23;1.83;;;;;;;;;;5043376;28;20216;-38
2022/05/16 02:06:46;;;;;;;3.00;1.50;;;;;;;;;;5049279;28;20228;-39
2022/05/16 02:09:13;;;;;;;2.10;1.70;;;;;;;;;;5049729;28;20202;-39
2022/05/16 02:11:40;;;;;;;3.40;1.70;;;;;;;;;;5030882;28;20227;-36
2022/05/16 02:14:09;;;;;;;1.67;1.57;;;;;;;;;;5048851;28;20269;-30
2022/05/16 02:16:36;;;;;;;2.80;1.63;;;;;;;;;;5045657;28;20233;-34
2022/05/16 02:19:03;;;;;;;4.30;1.50;;;;;;;;;;5045936;28;20206;-35
2022/05/16 02:27:00;;;;;;;2.87;2.00;;;;;;;;;;5038444;28;20292;-35
2022/05/16 02:29:28;;;;;;;4.30;2.10;;;;;;;;;;5049285;28;20308;-37
2022/05/16 02:31:55;;;;;;;4.43;1.93;;;;;;;;;;5041672;28;20226;-42
2022/05/16 02:34:22;;;;;;;1.87;1.60;;;;;;;;;;5044305;28;20202;-37
2022/05/16 02:36:50;;;;;;;2.33;2.10;;;;;;;;;;5048827;28;20296;-31
2022/05/16 02:39:18;;;;;;;1.73;1.63;;;;;;;;;;5046483;28;20213;-38
2022/05/16 02:41:45;;;;;;;1.70;1.60;;;;;;;;;;5039512;28;20209;-38
2022/05/16 02:44:13;;;;;;;1.83;1.67;;;;;;;;;;5049053;28;20209;-35
2022/05/16 02:46:42;;;;;;;3.53;1.77;;;;;;;;;;5044541;28;20227;-34
2022/05/16 02:49:09;;;;;;;1.80;1.70;;;;;;;;;;5041658;28;20206;-39
2022/05/16 02:51:36;;;;;;;2.17;1.70;;;;;;;;;;5049063;28;20226;-36
2022/05/16 02:54:04;;;;;;;2.30;2.10;;;;;;;;;;5049537;28;20241;-38
2022/05/16 02:56:31;;;;;;;1.77;1.63;;;;;;;;;;5041611;28;20236;-33
2022/05/16 03:01:27;;;;;;;1.90;1.80;;;;;;;;;;5048735;28;20228;-35
2022/05/16 03:03:55;;;;;;;1.63;1.50;;;;;;;;;;5059219;28;20193;-38
2022/05/16 03:06:22;;;;;;;2.60;1.77;;;;;;;;;;5069301;28;20244;-33
2022/05/16 03:08:49;;;;;;;2.80;1.70;;;;;;;;;;5069265;28;20242;-38
2022/05/16 03:11:16;;;;;;;2.33;2.13;;;;;;;;;;5063815;28;20268;-36
2022/05/16 03:13:44;;;;;;;1.63;1.50;;;;;;;;;;5065990;28;20206;-34
2022/05/16 03:16:11;;;;;;;2.63;1.60;;;;;;;;;;5051765;28;20233;-38
2022/05/16 03:18:38;;;;;;;1.83;1.70;;;;;;;;;;5051674;28;20209;-34
2022/05/16 03:21:06;;;;;;;2.37;1.73;;;;;;;;;;5060108;28;20193;-36
2022/05/16 03:23:33;;;;;;;2.70;2.00;;;;;;;;;;5062423;28;20216;-38
2022/05/16 03:26:00;;;;;;;2.30;1.73;;;;;;;;;;5063878;28;20224;-36
2022/05/16 03:28:29;;;;;;;4.53;1.90;;;;;;;;;;5064668;28;20204;-32
2022/05/16 03:30:57;;;;;;;1.90;1.70;;;;;;;;;;5053005;28;20228;-35
2022/05/16 03:33:25;;;;;;;2.80;1.70;;;;;;;;;;5056038;28;20213;-36
2022/05/16 03:35:55;;;;;;;2.13;1.90;;;;;;;;;;5055553;28;20240;-35
2022/05/16 03:41:11;;;;;;;2.40;1.80;;;;;;;;;;5043689;28;20327;-32
2022/05/16 03:43:40;;;;;;;1.47;1.37;;;;;;;;;;5053127;28;20199;-30
2022/05/16 03:46:07;;;;;;;1.43;1.33;;;;;;;;;;5072534;28;20232;-36
2022/05/16 03:48:35;;;;;;;5.00;1.70;;;;;;;;;;5065024;28;20205;-39
2022/05/16 03:51:03;;;;;;;3.50;1.50;;;;;;;;;;5067844;28;20218;-39
2022/05/16 03:53:31;;;;;;;2.33;2.13;;;;;;;;;;5068213;28;20232;-39
2022/05/16 03:55:58;;;;;;;2.70;2.00;;;;;;;;;;5068389;28;20252;-37
2022/05/16 03:58:25;;;;;;;2.83;1.93;;;;;;;;;;5060699;28;20209;-34
2022/05/16 04:00:52;;;;;;;2.40;1.23;;;;;;;;;;5054360;28;20224;-35
2022/05/16 04:03:19;;;;;;;3.63;1.97;;;;;;;;;;5066199;28;20229;-33
2022/05/16 04:05:47;;;;;;;3.00;1.77;;;;;;;;;;5056736;28;20226;-34
2022/05/16 04:08:14;;;;;;;2.57;2.33;;;;;;;;;;5074308;28;20209;-37
2022/05/16 04:10:42;;;;;;;2.03;1.60;;;;;;;;;;5074657;28;20209;-36
2022/05/16 04:13:09;;;;;;;2.00;1.80;;;;;;;;;;5065816;28;20212;-38
2022/05/16 04:15:37;;;;;;;2.80;1.77;;;;;;;;;;5070806;28;20221;-32
2022/05/16 04:18:04;;;;;;;2.20;1.73;;;;;;;;;;5055167;28;20209;-31
2022/05/16 04:20:31;;;;;;;2.90;1.60;;;;;;;;;;5068024;28;20209;-31
2022/05/16 04:22:59;;;;;;;5.00;1.43;;;;;;;;;;5071646;28;20197;-34
2022/05/16 04:25:26;;;;;;;2.87;1.57;;;;;;;;;;5071638;28;20229;-33
2022/05/16 04:27:54;;;;;;;1.70;1.60;;;;;;;;;;5057758;28;20210;-35
2022/05/16 04:30:21;;;;;;;2.67;1.93;;;;;;;;;;5068814;28;20197;-34
2022/05/16 04:32:48;;;;;;;2.63;1.90;;;;;;;;;;5061335;28;20232;-32
2022/05/16 04:35:15;;;;;;;3.17;1.80;;;;;;;;;;5064387;28;20212;-34
2022/05/16 04:37:42;;;;;;;1.83;1.73;;;;;;;;;;5062207;28;20202;-35
2022/05/16 04:40:11;;;;;;;2.07;1.97;;;;;;;;;;5054682;28;20210;-35
2022/05/16 04:42:40;;;;;;;3.33;1.87;;;;;;;;;;5054928;28;20202;-31
2022/05/16 04:45:10;;;;;;;3.07;2.03;;;;;;;;;;5063547;28;20256;-35
2022/05/16 04:47:37;;;;;;;1.83;1.60;;;;;;;;;;5055403;28;20201;-31
2022/05/16 04:50:04;;;;;;;2.80;2.10;;;;;;;;;;5070470;28;20201;-35
2022/05/16 04:52:32;;;;;;;1.97;1.77;;;;;;;;;;5072788;28;20226;-36
2022/05/16 04:54:59;;;;;;;2.13;1.93;;;;;;;;;;5073875;28;20210;-33
2022/05/16 04:57:27;;;;;;;4.53;1.97;;;;;;;;;;5065437;28;20221;-33
2022/05/16 04:59:54;;;;;;;2.53;2.07;;;;;;;;;;5056719;28;20213;-42
2022/05/16 05:02:22;;;;;;;3.60;2.10;;;;;;;;;;5063922;28;20209;-33
2022/05/16 05:04:49;;;;;;;1.77;1.67;;;;;;;;;;5061392;28;20212;-42
2022/05/16 05:07:16;;;;;;;2.40;2.20;;;;;;;;;;5057298;28;20217;-39
2022/05/16 05:15:19;;;;;;;2.37;2.00;;;;;;;;;;5072806;28;20204;-35
2022/05/16 05:17:47;;;;;;;2.37;1.90;;;;;;;;;;5063879;28;20209;-39
2022/05/16 05:20:15;;;;;;;2.23;2.03;;;;;;;;;;5063961;28;20210;-33
2022/05/16 05:22:42;;;;;;;2.63;2.10;;;;;;;;;;5071446;28;20205;-34
2022/05/16 05:25:10;;;;;;;2.13;1.90;;;;;;;;;;5072521;28;20206;-34
2022/05/16 05:27:38;;;;;;;4.17;2.23;;;;;;;;;;5062980;28;20202;-38
2022/05/16 05:32:34;;;;;;;2.13;1.90;;;;;;;;;;5014345;28;20227;-35
2022/05/16 05:35:03;;;;;;;3.53;1.93;;;;;;;;;;5025820;28;20271;-34
2022/05/16 05:37:30;;;;;;;4.23;2.17;;;;;;;;;;5024379;28;20223;-30
2022/05/16 05:40:00;;;;;;;5.50;2.50;;;;;;;;;;5032764;28;20285;-35
2022/05/16 05:42:27;;;;;;;4.43;2.40;;;;;;;;;;5033140;28;20207;-37
2022/05/16 05:44:55;;;;;;;4.50;2.60;;;;;;;;;;5023370;28;20203;-38
2022/05/16 05:47:22;;;;;;;2.33;2.13;;;;;;;;;;5027537;28;20223;-35
2022/05/16 05:49:50;;;;;;;2.00;1.60;;;;;;;;;;5014013;28;20221;-34
2022/05/16 05:52:19;;;;;;;2.47;2.27;;;;;;;;;;5013548;28;20227;-35
2022/05/16 05:54:46;;;;;;;4.60;2.43;;;;;;;;;;5032224;28;20206;-37
2022/05/16 05:57:14;;;;;;;3.77;2.20;;;;;;;;;;5023246;28;20273;-29
2022/05/16 05:59:42;;;;;;;3.20;1.90;;;;;;;;;;5031890;28;20211;-39
2022/05/16 06:02:10;;;;;;;2.73;2.10;;;;;;;;;;5029391;28;20232;-39
2022/05/16 06:04:38;;;;;;;2.20;2.10;;;;;;;;;;5013434;28;20292;-34
2022/05/16 06:07:05;;;;;;;3.00;2.10;;;;;;;;;;5031801;28;20238;-41
2022/05/16 06:09:34;;;;;;;2.87;2.37;;;;;;;;;;5028196;28;20495;-33
2022/05/16 06:12:03;;;;;;;2.70;2.43;;;;;;;;;;5015447;28;20228;-35
2022/05/16 06:14:31;;;;;;;3.30;2.33;;;;;;;;;;5032061;28;20448;-31
2022/05/16 06:16:58;;;;;;;2.93;2.20;;;;;;;;;;5025629;28;20230;-29
2022/05/16 06:19:25;;;;;;;3.00;2.17;;;;;;;;;;5014239;28;20230;-36
2022/05/16 06:21:53;;;;;;;2.67;2.23;;;;;;;;;;5011550;28;20204;-36
2022/05/16 06:27:08;;;;;;;2.70;1.97;;;;;;;;;;5019900;28;20221;-38
2022/05/16 06:29:35;;;;;;;2.30;2.20;;;;;;;;;;5020174;28;20219;-35
2022/05/16 06:32:03;;;;;;;2.40;2.23;;;;;;;;;;5010008;28;20223;-33
2022/05/16 06:34:30;;;;;;;5.13;2.53;;;;;;;;;;5019549;28;20202;-30
2022/05/16 06:36:57;;;;;;;3.93;2.70;;;;;;;;;;5031688;28;20232;-35
2022/05/16 06:39:24;;;;;;;3.90;2.63;;;;;;;;;;5031990;28;20207;-34
2022/05/16 06:41:51;;;;;;;6.73;2.30;;;;;;;;;;5024806;28;20219;-32
2022/05/16 06:44:20;;;;;;;3.17;2.40;;;;;;;;;;5018573;28;20211;-31
2022/05/16 06:46:48;;;;;;;6.50;2.50;;;;;;;;;;5027398;28;20285;-31
2022/05/16 06:49:15;;;;;;;3.40;2.10;;;;;;;;;;5012736;28;20200;-39
2022/05/16 06:51:42;;;;;;;4.43;2.73;;;;;;;;;;5023191;28;20230;-34
2022/05/16 06:54:10;;;;;;;5.73;3.47;;;;;;;;;;5023178;28;20210;-35
2022/05/16 06:56:37;;;;;;;6.50;3.07;;;;;;;;;;5031785;28;20229;-34
2022/05/16 06:59:05;;;;;;;3.73;3.10;;;;;;;;;;5029404;28;20231;-32
2022/05/16 07:01:34;;;;;;;4.03;2.93;;;;;;;;;;5022619;28;20283;-38
2022/05/16 07:04:02;;;;;;;5.67;3.53;;;;;;;;;;5025861;28;20217;-34
2022/05/16 07:06:29;;;;;;;5.23;3.53;;;;;;;;;;5032639;28;20226;-37
2022/05/16 07:08:56;;;;;;;6.53;3.80;;;;;;;;;;5036753;28;20203;-36
2022/05/16 07:11:23;;;;;;;4.83;3.80;;;;;;;;;;5032773;28;20220;-31
2022/05/16 07:13:51;;;;;;;7.43;3.40;;;;;;;;;;5029879;28;20318;-32
2022/05/16 07:16:18;;;;;;;6.30;3.40;;;;;;;;;;5034920;28;20219;-38
2022/05/16 07:18:46;;;;;;;6.30;3.40;;;;;;;;;;5028069;28;20208;-36
2022/05/16 07:21:14;;;;;;;6.50;3.47;;;;;;;;;;5023421;28;20236;-34
2022/05/16 07:23:41;;;;;;;3.63;3.03;;;;;;;;;;5027652;28;20265;-36
2022/05/16 07:28:53;;;;;;;3.87;3.50;;;;;;;;;;5030746;28;20264;-34
2022/05/16 07:31:20;;;;;;;5.27;3.23;;;;;;;;;;5022315;28;20267;-29
2022/05/16 07:33:49;;;;;;;7.43;3.67;;;;;;;;;;5024445;28;20456;-37
2022/05/16 07:36:16;;;;;;;5.60;3.43;;;;;;;;;;5023247;28;20222;-38
2022/05/16 07:38:43;;;;;;;4.67;3.40;;;;;;;;;;5016313;28;20238;-34
2022/05/16 07:41:10;;;;;;;8.50;3.20;;;;;;;;;;5027901;28;20211;-35
2022/05/16 07:43:38;;;;;;;4.30;3.53;;;;;;;;;;5021729;28;20205;-34
2022/05/16 07:46:07;;;;;;;7.53;3.43;;;;;;;;;;5018044;28;20216;-31
2022/05/16 07:48:35;;;;;;;3.93;2.77;;;;;;;;;;5025676;28;20294;-37
2022/05/16 07:51:06;;;;;;;5.50;3.30;;;;;;;;;;5031742;28;20200;-33
2022/05/16 07:53:33;;;;;;;10.70;2.97;;;;;;;;;;5032219;28;20227;-34
2022/05/16 07:56:00;;;;;;;4.13;2.87;;;;;;;;;;5025197;28;20227;-33
2022/05/16 07:58:28;;;;;;;3.43;2.97;;;;;;;;;;5028062;28;20250;-33
2022/05/16 08:00:56;;;;;;;4.90;3.03;;;;;;;;;;5012329;28;20236;-34
2022/05/16 08:03:24;;;;;;;5.20;3.07;;;;;;;;;;5019580;28;20199;-34
2022/05/16 08:05:51;;;;;;;7.30;2.97;;;;;;;;;;5027983;28;20232;-41
2022/05/16 08:11:04;;;;;;;3.47;3.17;;;;;;;;;;5022574;28;20209;-35
2022/05/16 08:13:32;;;;;;;9.73;3.30;;;;;;;;;;5023168;28;20314;-30
2022/05/16 08:15:59;;;;;;;15.03;4.07;;;;;;;;;;5024082;28;20225;-35
2022/05/16 08:18:26;;;;;;;12.57;3.70;;;;;;;;;;5021287;28;20214;-28
2022/05/16 08:20:54;;;;;;;3.87;3.30;;;;;;;;;;5012218;28;20206;-35
2022/05/16 08:23:25;;;;;;;9.07;3.23;;;;;;;;;;5025641;28;20216;-31
2022/05/16 08:25:54;;;;;;;4.90;2.93;;;;;;;;;;5029504;28;20686;-34
2022/05/16 08:28:22;;;;;;;4.00;2.97;;;;;;;;;;5021748;28;20202;-33
2022/05/16 08:30:49;;;;;;;3.50;3.07;;;;;;;;;;5011349;28;20217;-33
2022/05/16 08:33:17;;;;;;;3.40;3.10;;;;;;;;;;5013405;28;20221;-33
2022/05/16 08:35:44;;;;;;;4.43;2.83;;;;;;;;;;5019371;28;20228;-35
2022/05/16 08:40:59;;;;;;;6.93;2.73;;;;;;;;;;5023183;28;20199;-35
2022/05/16 08:43:35;;;;;;;4.27;2.57;;;;;;;;;;5021608;28;20212;-32
2022/05/16 08:46:15;;;;;;;3.30;2.50;;;;;;;;;;5011197;28;20320;-33
2022/05/16 08:48:45;;;;;;;4.00;2.77;;;;;;;;;;5025210;28;20236;-33
2022/05/16 08:51:14;;;;;;;6.73;2.67;;;;;;;;;;5014937;28;20192;-29
2022/05/16 08:53:43;;;;;;;3.00;2.70;;;;;;;;;;5031191;28;20238;-34
2022/05/16 08:56:12;;;;;;;6.90;3.00;;;;;;;;;;5020683;28;20216;-29
2022/05/16 08:58:41;;;;;;;4.13;2.67;;;;;;;;;;5014847;28;20205;-40
2022/05/16 09:01:09;;;;;;;4.73;3.13;;;;;;;;;;5017785;28;20210;-32
2022/05/16 09:03:40;;;;;;;4.77;2.87;;;;;;;;;;5012683;28;20204;-30
2022/05/16 09:06:12;;;;;;;2.57;2.37;;;;;;;;;;5022067;28;20223;-34
2022/05/16 09:08:47;;;;;;;2.97;2.40;;;;;;;;;;5031266;28;20278;-35
2022/05/16 09:11:18;;;;;;;5.27;3.00;;;;;;;;;;5022520;28;20248;-33
2022/05/16 09:13:51;;;;;;;4.00;2.47;;;;;;;;;;5017763;28;20325;-35
2022/05/16 09:16:37;;;;;;;3.10;2.50;;;;;;;;;;5017439;28;20228;-35
2022/05/16 09:19:08;;;;;;;5.67;2.70;;;;;;;;;;5014853;28;20197;-39
2022/05/16 09:21:41;;;;;;;8.13;2.57;;;;;;;;;;5027229;28;20214;-35
2022/05/16 09:24:11;;;;;;;7.50;2.60;;;;;;;;;;5030309;28;20181;-33
2022/05/16 09:26:45;;;;;;;3.47;2.50;;;;;;;;;;5025753;28;20240;-35
2022/05/16 09:29:18;;;;;;;2.57;2.30;;;;;;;;;;5017372;28;20200;-37
2022/05/16 09:31:48;;;;;;;5.37;2.57;;;;;;;;;;5024752;28;20214;-28
2022/05/16 09:34:15;;;;;;;4.60;2.23;;;;;;;;;;5028597;28;20222;-34
2022/05/16 09:36:45;;;;;;;4.53;2.30;;;;;;;;;;5012715;28;20455;-36
2022/05/16 09:39:12;;;;;;;3.80;2.77;;;;;;;;;;5010643;28;20214;-37
2022/05/16 09:41:46;;;;;;;2.73;2.30;;;;;;;;;;5012732;28;20206;-38
2022/05/16 09:44:21;;;;;;;3.87;2.70;;;;;;;;;;5021638;28;20210;-30
2022/05/16 09:46:49;;;;;;;7.83;2.70;;;;;;;;;;5024688;28;20239;-31
2022/05/16 09:49:20;;;;;;;2.27;2.07;;;;;;;;;;5023335;28;20194;-33
2022/05/16 09:51:52;;;;;;;3.57;2.33;;;;;;;;;;5020122;28;20198;-35
2022/05/16 09:54:25;;;;;;;2.30;2.07;;;;;;;;;;5010342;28;20222;-34
2022/05/16 09:56:56;;;;;;;3.10;2.73;;;;;;;;;;5019465;28;20229;-34
2022/05/16 09:59:34;;;;;;;2.70;2.50;;;;;;;;;;5018501;28;20194;-33
2022/05/16 10:02:08;;;;;;;2.47;2.27;;;;;;;;;;5010369;28;20199;-34
2022/05/16 10:04:43;;;;;;;2.87;2.37;;;;;;;;;;5007981;28;20207;-39
2022/05/16 10:07:11;;;;;;;2.67;2.30;;;;;;;;;;5021366;28;20218;-33
2022/05/16 10:09:41;;;;;;;2.53;2.33;;;;;;;;;;5021916;28;20210;-32
2022/05/16 10:12:11;;;;;;;2.67;2.33;;;;;;;;;;5012298;28;20206;-34
2022/05/16 10:14:39;;;;;;;2.90;2.70;;;;;;;;;;5019096;28;20224;-27
2022/05/16 10:17:07;;;;;;;3.53;2.40;;;;;;;;;;5026684;28;20229;-36
2022/05/16 10:19:35;;;;;;;2.73;2.23;;;;;;;;;;5012197;28;20210;-39
2022/05/16 10:22:04;;;;;;;2.80;2.53;;;;;;;;;;5021842;28;20213;-37
2022/05/16 10:24:33;;;;;;;2.60;2.40;;;;;;;;;;5018555;28;20207;-36
2022/05/16 10:27:05;;;;;;;3.53;2.07;;;;;;;;;;5262992;22;20261;-30
2022/05/16 10:29:38;;;;;;;2.50;2.30;;;;;;;;;;5008765;28;20286;-30
2022/05/16 10:34:55;;;;;;;2.50;2.30;;;;;;;;;;4998914;28;20234;-29
2022/05/16 10:37:23;;;;;;;3.00;2.42;;;;;;;;;;4991058;28;20227;-32
2022/05/16 10:39:52;;;;;;;2.77;2.20;;;;;;;;;;4990506;28;20289;-29
2022/05/16 10:42:23;;;;;;;4.25;2.72;;;;;;;;;;4992378;28;20212;-31
2022/05/16 10:44:54;;;;;;;2.90;2.40;;;;;;;;;;5001334;28;20290;-29
2022/05/16 10:47:25;;;;;;;5.35;2.50;;;;;;;;;;4995952;28;20231;-30
2022/05/16 10:49:56;;;;;;;4.90;2.83;;;;;;;;;;5000054;28;20207;-32
2022/05/16 10:52:27;;;;;;;8.50;3.50;;;;;;;;;;4994917;28;20195;-29
2022/05/16 10:54:55;;;;;;;6.60;3.40;;;;;;;;;;4994163;28;20313;-28
2022/05/16 10:57:35;;;;;;;6.30;3.30;;;;;;;;;;5009608;28;20234;-28
2022/05/16 11:00:08;;;;;;;4.53;3.10;;;;;;;;;;5010044;28;20233;-31
2022/05/16 11:02:43;;;;;;;5.73;3.57;;;;;;;;;;5002360;28;20696;-28
2022/05/16 11:05:18;;;;;;;3.20;2.90;;;;;;;;;;5001056;28;20206;-28
2022/05/16 11:07:52;;;;;;;7.80;3.67;;;;;;;;;;4992512;28;20211;-28
2022/05/16 11:10:23;;;;;;;6.27;3.73;;;;;;;;;;4993184;28;20209;-31
2022/05/16 11:12:52;;;;;;;5.97;3.50;;;;;;;;;;4990496;28;20577;-28
2022/05/16 11:15:27;;;;;;;6.40;3.57;;;;;;;;;;4995718;28;20267;-30
2022/05/16 11:17:58;;;;;;;5.07;3.23;;;;;;;;;;5003147;28;20296;-28
2022/05/16 11:20:27;;;;;;;7.37;3.10;;;;;;;;;;5000627;28;20228;-31
2022/05/16 11:22:56;;;;;;;5.83;3.50;;;;;;;;;;5010307;28;20225;-27
2022/05/16 11:25:26;;;;;;;6.87;4.17;;;;;;;;;;5009848;28;20216;-31
2022/05/16 11:28:00;;;;;;;8.33;4.50;;;;;;;;;;4996217;28;20237;-28
2022/05/16 11:30:34;;;;;;;5.60;4.40;;;;;;;;;;4999804;28;20256;-31
2022/05/16 11:33:09;;;;;;;4.47;3.57;;;;;;;;;;4999837;28;20210;-29
2022/05/16 11:35:39;;;;;;;6.33;3.80;;;;;;;;;;5001160;28;20230;-29
2022/05/16 11:38:15;;;;;;;6.47;4.23;;;;;;;;;;5004440;28;20199;-30
2022/05/16 11:40:47;;;;;;;5.50;4.10;;;;;;;;;;4996308;28;20214;-30
2022/05/16 11:43:18;;;;;;;7.10;4.23;;;;;;;;;;5004313;28;20206;-30
2022/05/16 11:45:57;;;;;;;4.83;4.30;;;;;;;;;;5002450;28;20246;-28
2022/05/16 11:48:27;;;;;;;5.27;3.90;;;;;;;;;;4996915;28;20229;-29
2022/05/16 11:50:59;;;;;;;8.60;4.50;;;;;;;;;;5001306;28;20222;-31
2022/05/16 11:53:38;;;;;;;4.87;3.90;;;;;;;;;;4998564;28;20234;-27
2022/05/16 12:01:38;;;;;;;5.77;2.03;;;;;;;;;;5002166;28;20304;-30
2022/05/16 12:04:07;;;;;;;6.60;2.47;;;;;;;;;;4999263;28;20206;-29
2022/05/16 12:06:35;;;;;;;4.67;2.57;;;;;;;;;;5004430;28;20219;-28
2022/05/16 12:09:23;;;;;;;4.67;2.43;;;;;;;;;;4999596;28;20269;-31
2022/05/16 12:11:55;;;;;;;4.73;2.47;;;;;;;;;;5003720;28;20211;-30
2022/05/16 12:14:28;;;;;;;4.97;2.47;;;;;;;;;;5004250;28;20219;-28
2022/05/16 12:16:58;;;;;;;6.73;2.50;;;;;;;;;;4998329;28;20660;-31
2022/05/16 12:19:29;;;;;;;5.00;2.00;;;;;;;;;;5001089;28;20668;-28
2022/05/16 12:22:01;;;;;;;4.93;2.30;;;;;;;;;;5000730;28;20195;-27
2022/05/16 12:24:44;;;;;;;3.77;2.53;;;;;;;;;;4995916;28;20199;-29
2022/05/16 12:27:25;;;;;;;5.10;2.10;;;;;;;;;;4989801;28;20321;-27
2022/05/16 12:29:56;;;;;;;7.00;2.00;;;;;;;;;;4995993;28;20405;-28
2022/05/16 12:32:56;;;;;;;4.13;1.93;;;;;;;;;;4998547;28;20213;-26
2022/05/16 12:35:51;;;;;;;3.33;2.10;;;;;;;;;;4988275;28;20227;-29
2022/05/16 12:38:21;;;;;;;4.40;1.80;;;;;;;;;;4953647;28;20230;-29
2022/05/16 12:41:12;;;;;;;4.73;2.00;;;;;;;;;;4999945;28;20223;-30
2022/05/16 12:43:57;;;;;;;3.57;1.60;;;;;;;;;;5003342;28;20192;-30
2022/05/16 12:46:29;;;;;;;3.07;2.10;;;;;;;;;;5003604;28;20226;-29
2022/05/16 12:49:12;;;;;;;3.43;2.03;;;;;;;;;;4992007;28;20204;-30
2022/05/16 12:51:45;;;;;;;5.40;2.20;;;;;;;;;;4996379;28;20211;-29
2022/05/16 12:54:31;;;;;;;3.43;2.47;;;;;;;;;;4987970;28;20580;-28
2022/05/16 12:56:59;;;;;;;4.07;2.20;;;;;;;;;;4988746;28;20222;-29
2022/05/16 12:59:34;;;;;;;2.73;1.93;;;;;;;;;;4995356;28;20215;-33
2022/05/16 13:02:04;;;;;;;5.50;2.30;;;;;;;;;;4991944;28;20199;-29
2022/05/16 13:04:40;;;;;;;3.50;2.20;;;;;;;;;;5006165;28;20206;-30
2022/05/16 13:07:10;;;;;;;3.73;1.87;;;;;;;;;;5001236;28;20231;-31
2022/05/16 13:09:44;;;;;;;5.10;2.13;;;;;;;;;;5002526;28;20212;-32
2022/05/16 13:12:16;;;;;;;4.63;1.67;;;;;;;;;;5000466;28;20437;-30
2022/05/16 13:14:48;;;;;;;3.90;2.07;;;;;;;;;;5007014;28;20238;-31
2022/05/16 13:17:18;;;;;;;5.73;2.10;;;;;;;;;;5000938;28;20226;-29
2022/05/16 13:19:47;;;;;;;4.80;1.73;;;;;;;;;;5000456;28;20210;-32
2022/05/16 13:22:17;;;;;;;4.67;1.80;;;;;;;;;;5004807;28;20314;-30
2022/05/16 13:24:46;;;;;;;6.57;2.00;;;;;;;;;;5007331;28;20199;-30
2022/05/16 13:30:03;;;;;;;5.50;1.92;;;;;;;;;;5000921;28;20211;-30
2022/05/16 13:32:31;;;;;;;4.55;1.60;;;;;;;;;;4997545;28;20204;-32
2022/05/16 13:34:59;;;;;;;2.88;1.60;;;;;;;;;;5004398;28;20294;-29
2022/05/16 13:37:27;;;;;;;3.08;1.55;;;;;;;;;;5007158;28;20234;-30
2022/05/16 13:39:58;;;;;;;3.90;1.98;;;;;;;;;;5005714;28;20206;-31
2022/05/16 13:42:25;;;;;;;7.55;2.15;;;;;;;;;;5001713;28;20819;-28
2022/05/16 13:44:57;;;;;;;3.65;2.00;;;;;;;;;;5007129;28;20235;-31
2022/05/16 13:47:25;;;;;;;2.58;1.50;;;;;;;;;;5002218;28;20223;-31
2022/05/16 13:49:52;;;;;;;3.10;2.05;;;;;;;;;;5004202;28;20214;-29
2022/05/16 13:52:20;;;;;;;2.80;1.50;;;;;;;;;;5010691;28;20683;-32
2022/05/16 13:54:48;;;;;;;6.05;2.00;;;;;;;;;;5011078;28;20229;-33
2022/05/16 13:57:22;;;;;;;4.93;2.40;;;;;;;;;;5005622;28;20242;-30
2022/05/16 13:59:50;;;;;;;7.70;2.13;;;;;;;;;;5003559;28;20217;-32
2022/05/16 14:02:25;;;;;;;4.93;2.20;;;;;;;;;;4999773;28;20230;-32
2022/05/16 14:04:55;;;;;;;3.25;1.80;;;;;;;;;;5004723;28;20219;-30
2022/05/16 14:07:23;;;;;;;2.22;1.73;;;;;;;;;;5004392;28;20231;-28
2022/05/16 14:09:52;;;;;;;3.78;1.98;;;;;;;;;;5008772;28;20282;-33
2022/05/16 14:12:23;;;;;;;3.40;2.10;;;;;;;;;;5001779;28;20203;-31
2022/05/16 14:14:51;;;;;;;4.65;1.42;;;;;;;;;;5001024;28;20301;-30
2022/05/16 14:17:35;;;;;;;3.00;1.80;;;;;;;;;;5005727;28;20242;-30
2022/05/16 14:20:12;;;;;;;1.77;1.60;;;;;;;;;;5004593;28;20200;-31
2022/05/16 14:22:42;;;;;;;2.88;1.58;;;;;;;;;;5009864;28;20202;-32
2022/05/16 14:25:11;;;;;;;4.03;1.73;;;;;;;;;;5009620;28;20207;-29
2022/05/16 14:27:41;;;;;;;3.13;1.98;;;;;;;;;;5005531;28;20676;-32
2022/05/16 14:30:14;;;;;;;3.00;1.83;;;;;;;;;;5004107;28;20338;-29
2022/05/16 14:32:44;;;;;;;1.70;1.50;;;;;;;;;;4999943;28;20203;-31
2022/05/16 14:35:13;;;;;;;1.63;1.40;;;;;;;;;;5007176;28;20704;-28
2022/05/16 14:37:41;;;;;;;4.32;2.00;;;;;;;;;;5009846;28;20203;-31
2022/05/16 14:40:14;;;;;;;2.83;1.50;;;;;;;;;;5006876;28;20219;-28
2022/05/16 14:42:45;;;;;;;2.80;1.80;;;;;;;;;;5002800;28;20241;-30
2022/05/16 14:45:21;;;;;;;3.20;2.03;;;;;;;;;;5006942;28;20203;-28
2022/05/16 14:47:49;;;;;;;3.75;2.08;;;;;;;;;;5003950;28;20222;-32
2022/05/16 14:50:19;;;;;;;4.40;1.95;;;;;;;;;;5007287;28;20203;-28
2022/05/16 14:52:48;;;;;;;2.95;1.92;;;;;;;;;;5006758;28;20203;-31
2022/05/16 14:55:16;;;;;;;5.28;2.10;;;;;;;;;;5001920;28;20694;-31
2022/05/16 14:57:45;;;;;;;5.82;2.03;;;;;;;;;;5004535;28;20581;-32
2022/05/16 15:05:40;;;;;;;3.88;2.20;;;;;;;;;;5003191;28;20230;-32
2022/05/16 15:08:07;;;;;;;3.50;2.40;;;;;;;;;;5009931;28;20215;-29
2022/05/16 15:10:35;;;;;;;4.18;2.50;;;;;;;;;;5000239;28;20203;-31
2022/05/16 15:13:04;;;;;;;4.87;2.13;;;;;;;;;;5011415;28;20324;-30
2022/05/16 15:15:31;;;;;;;4.57;2.45;;;;;;;;;;5012960;28;20238;-32
2022/05/16 15:17:58;;;;;;;3.97;2.53;;;;;;;;;;5004973;28;20203;-29
2022/05/16 15:20:25;;;;;;;3.50;2.50;;;;;;;;;;4998348;28;20216;-29
2022/05/16 15:22:52;;;;;;;4.57;2.00;;;;;;;;;;4996327;28;20561;-30
2022/05/16 15:25:19;;;;;;;4.90;2.77;;;;;;;;;;5003859;28;20288;-30
2022/05/16 15:27:46;;;;;;;5.43;2.50;;;;;;;;;;5003944;28;20211;-31
2022/05/16 15:30:15;;;;;;;2.03;1.70;;;;;;;;;;5007252;28;20239;-30
2022/05/16 15:32:43;;;;;;;3.38;1.98;;;;;;;;;;5003565;28;20208;-29
2022/05/16 15:35:11;;;;;;;5.33;2.40;;;;;;;;;;5006898;28;20231;-31
2022/05/16 15:37:38;;;;;;;2.67;2.00;;;;;;;;;;5013013;28;20275;-31
2022/05/16 15:40:05;;;;;;;2.90;2.07;;;;;;;;;;5007186;28;20211;-31
2022/05/16 15:42:33;;;;;;;3.13;2.00;;;;;;;;;;5011898;28;20633;-31
2022/05/16 15:45:01;;;;;;;3.00;2.10;;;;;;;;;;5012388;28;20206;-28